createdAt,value
2018-12-24T00:03:53.310Z,0.40
2018-12-24T00:09:57.604Z,0.40
2018-12-24T00:16:25.338Z,0.30
2018-12-24T00:22:55.798Z,0.50
2018-12-24T00:31:06.318Z,0.50
2018-12-24T00:34:28.740Z,0.40
2018-12-24T00:46:47.679Z,0.20
2018-12-24T00:52:39.225Z,0.20
2018-12-24T01:16:55.659Z,0.30
2018-12-24T01:21:52.092Z,0.30
2018-12-24T01:26:51.770Z,0.30
2018-12-24T01:31:48.449Z,0.43
2018-12-24T01:36:45.255Z,0.20
2018-12-24T01:41:42.364Z,0.13
2018-12-24T01:46:41.395Z,0.20
2018-12-24T01:51:41.178Z,0.20
2018-12-24T01:56:36.630Z,0.10
2018-12-24T02:01:33.363Z,0.20
2018-12-24T02:08:21.391Z,0.20
2018-12-24T02:13:19.486Z,0.10
2018-12-24T02:18:15.385Z,0.10
2018-12-24T02:23:18.740Z,0.00
2018-12-24T02:28:15.011Z,0.20
2018-12-24T02:33:11.388Z,0.10
2018-12-24T02:38:09.433Z,0.10
2018-12-24T02:43:11.054Z,0.07
2018-12-24T02:48:14.752Z,0.00
2018-12-24T02:53:14.895Z,0.00
2018-12-24T02:58:17.235Z,0.03
2018-12-24T03:03:24.259Z,0.07
2018-12-24T03:08:21.542Z,0.00
2018-12-24T03:13:22.257Z,0.10
2018-12-24T03:18:18.419Z,0.00
2018-12-24T03:23:20.797Z,0.10
2018-12-24T03:28:24.307Z,0.00
2018-12-24T03:33:22.468Z,0.13
2018-12-24T03:38:24.955Z,0.10
2018-12-24T03:43:20.832Z,0.00
2018-12-24T03:48:16.742Z,0.00
2018-12-24T03:53:14.665Z,0.10
2018-12-24T03:58:16.379Z,0.10
2018-12-24T04:03:17.567Z,0.10
2018-12-24T04:08:18.174Z,0.03
2018-12-24T04:13:22.122Z,0.20
2018-12-24T04:18:21.289Z,0.13
2018-12-24T04:23:23.532Z,0.20
2018-12-24T04:28:28.549Z,0.10
2018-12-24T04:33:29.240Z,0.20
2018-12-24T04:38:25.461Z,0.20
2018-12-24T04:43:32.365Z,0.20
2018-12-24T04:48:27.770Z,0.20
2018-12-24T04:53:30.812Z,0.10
2018-12-24T04:58:26.550Z,0.33
2018-12-24T05:03:24.279Z,0.20
2018-12-24T05:08:26.113Z,0.20
2018-12-24T05:13:24.586Z,0.20
2018-12-24T05:18:25.115Z,0.10
2018-12-24T05:23:21.716Z,0.10
2018-12-24T05:28:27.223Z,0.20
2018-12-24T05:33:20.786Z,0.00
2018-12-24T05:38:21.514Z,0.00
2018-12-24T05:43:17.611Z,0.00
2018-12-24T05:48:16.470Z,0.10
2018-12-24T05:53:14.204Z,0.30
2018-12-24T05:58:10.615Z,0.00
2018-12-24T06:03:09.165Z,0.00
2018-12-24T06:08:05.121Z,0.20
2018-12-24T06:13:01.036Z,0.07
2018-12-24T06:17:57.738Z,0.00
2018-12-24T06:22:54.022Z,0.00
2018-12-24T06:27:50.177Z,0.10
2018-12-24T06:32:46.209Z,0.20
2018-12-24T06:37:42.578Z,0.10
2018-12-24T06:42:39.004Z,0.10
2018-12-24T06:47:35.075Z,0.27
2018-12-24T06:52:31.230Z,0.13
2018-12-24T06:57:34.094Z,0.03
2018-12-24T07:02:40.982Z,0.20
2018-12-24T07:20:01.183Z,0.20
2018-12-24T07:25:04.665Z,0.17
2018-12-24T07:30:00.703Z,0.03
2018-12-24T07:35:03.362Z,0.00
2018-12-24T07:40:10.776Z,0.00
2018-12-24T07:45:10.758Z,0.00
2018-12-24T07:50:11.389Z,0.30
2018-12-24T07:55:31.512Z,0.10
2018-12-24T08:00:43.326Z,0.10
2018-12-24T08:13:00.176Z,0.00
2018-12-24T08:18:15.426Z,0.10
2018-12-24T08:23:27.683Z,0.20
2018-12-24T08:28:39.637Z,0.20
2018-12-24T08:34:58.092Z,0.17
2018-12-24T08:41:10.698Z,0.20
2018-12-24T08:53:15.616Z,0.50
2018-12-24T10:10:05.921Z,0.97
2018-12-24T12:59:12.692Z,1.20
2018-12-24T13:04:27.408Z,1.30
2018-12-24T13:09:23.098Z,0.97
2018-12-24T13:14:18.920Z,0.83
2018-12-24T13:19:14.678Z,0.90
2018-12-24T13:24:29.568Z,1.30
2018-12-24T13:29:44.329Z,1.10
2018-12-24T13:34:59.253Z,1.00
2018-12-24T13:40:14.035Z,1.00
2018-12-24T13:45:28.813Z,1.03
2018-12-24T14:32:02.079Z,1.10
2018-12-24T22:56:29.222Z,5.27
2018-12-24T23:02:18.105Z,4.60
2018-12-24T23:07:49.680Z,4.87
2018-12-24T23:14:01.991Z,4.30
2018-12-24T23:20:17.669Z,5.00
2018-12-24T23:24:33.229Z,4.80
2018-12-24T23:30:07.600Z,4.60
2018-12-24T23:35:12.570Z,4.93
2018-12-24T23:40:54.380Z,4.93
2018-12-24T23:46:05.460Z,4.63
2018-12-24T23:51:12.441Z,5.50
2018-12-24T23:56:08.726Z,4.67
